sensor_id;sensor_type;location;lat;lon;timestamp;P1;durP1;ratioP1;P2;durP2;ratioP2
70301;SDS011;57706;56.326;43.882;2023-05-10T00:01:32;40.10;;;18.65;;
70301;SDS011;57706;56.326;43.882;2023-05-10T00:03:58;33.47;;;16.08;;
70301;SDS011;57706;56.326;43.882;2023-05-10T00:06:24;42.20;;;19.27;;
70301;SDS011;57706;56.326;43.882;2023-05-10T00:08:50;47.53;;;19.23;;
70301;SDS011;57706;56.326;43.882;2023-05-10T00:11:16;38.05;;;17.42;;
70301;SDS011;57706;56.326;43.882;2023-05-10T00:13:42;41.88;;;17.35;;
70301;SDS011;57706;56.326;43.882;2023-05-10T00:16:07;41.50;;;17.52;;
70301;SDS011;57706;56.326;43.882;2023-05-10T00:18:33;43.35;;;17.10;;
70301;SDS011;57706;56.326;43.882;2023-05-10T00:20:59;39.80;;;18.50;;
70301;SDS011;57706;56.326;43.882;2023-05-10T00:23:25;35.78;;;16.23;;
70301;SDS011;57706;56.326;43.882;2023-05-10T00:25:51;49.47;;;19.27;;
70301;SDS011;57706;56.326;43.882;2023-05-10T00:28:17;42.63;;;16.92;;
70301;SDS011;57706;56.326;43.882;2023-05-10T00:30:42;37.47;;;16.48;;
70301;SDS011;57706;56.326;43.882;2023-05-10T00:33:08;38.05;;;16.45;;
70301;SDS011;57706;56.326;43.882;2023-05-10T00:35:34;44.05;;;18.23;;
70301;SDS011;57706;56.326;43.882;2023-05-10T00:38:01;34.30;;;16.42;;
70301;SDS011;57706;56.326;43.882;2023-05-10T00:40:27;39.00;;;15.60;;
70301;SDS011;57706;56.326;43.882;2023-05-10T00:42:58;41.05;;;17.15;;
70301;SDS011;57706;56.326;43.882;2023-05-10T00:45:26;36.05;;;16.15;;
70301;SDS011;57706;56.326;43.882;2023-05-10T00:47:52;37.40;;;16.30;;
70301;SDS011;57706;56.326;43.882;2023-05-10T00:50:21;38.08;;;12.88;;
70301;SDS011;57706;56.326;43.882;2023-05-10T00:52:48;27.95;;;13.55;;
70301;SDS011;57706;56.326;43.882;2023-05-10T00:55:14;38.28;;;15.93;;
70301;SDS011;57706;56.326;43.882;2023-05-10T00:57:40;38.95;;;16.30;;
70301;SDS011;57706;56.326;43.882;2023-05-10T01:00:07;41.50;;;15.55;;
70301;SDS011;57706;56.326;43.882;2023-05-10T01:02:34;37.80;;;16.45;;
70301;SDS011;57706;56.326;43.882;2023-05-10T01:05:02;23.73;;;13.07;;
70301;SDS011;57706;56.326;43.882;2023-05-10T01:07:29;32.45;;;13.77;;
70301;SDS011;57706;56.326;43.882;2023-05-10T01:09:55;38.50;;;16.35;;
70301;SDS011;57706;56.326;43.882;2023-05-10T01:12:22;35.60;;;15.38;;
70301;SDS011;57706;56.326;43.882;2023-05-10T01:14:48;26.65;;;13.57;;
70301;SDS011;57706;56.326;43.882;2023-05-10T01:17:14;26.23;;;11.43;;
70301;SDS011;57706;56.326;43.882;2023-05-10T01:19:41;25.15;;;12.63;;
70301;SDS011;57706;56.326;43.882;2023-05-10T01:30:36;23.85;;;11.25;;
70301;SDS011;57706;56.326;43.882;2023-05-10T01:36:08;26.58;;;12.52;;
70301;SDS011;57706;56.326;43.882;2023-05-10T01:41:19;27.27;;;13.25;;
70301;SDS011;57706;56.326;43.882;2023-05-10T01:46:31;24.63;;;12.38;;
70301;SDS011;57706;56.326;43.882;2023-05-10T01:49:02;27.75;;;12.38;;
70301;SDS011;57706;56.326;43.882;2023-05-10T01:51:36;23.67;;;12.43;;
70301;SDS011;57706;56.326;43.882;2023-05-10T01:54:07;24.40;;;11.60;;
70301;SDS011;57706;56.326;43.882;2023-05-10T01:56:37;27.30;;;13.45;;
70301;SDS011;57706;56.326;43.882;2023-05-10T01:59:06;32.97;;;13.65;;
70301;SDS011;57706;56.326;43.882;2023-05-10T02:01:39;29.42;;;13.98;;
70301;SDS011;57706;56.326;43.882;2023-05-10T02:04:08;30.88;;;13.90;;
70301;SDS011;57706;56.326;43.882;2023-05-10T02:06:36;24.65;;;13.60;;
70301;SDS011;57706;56.326;43.882;2023-05-10T02:09:04;25.67;;;12.65;;
70301;SDS011;57706;56.326;43.882;2023-05-10T02:11:31;24.63;;;13.18;;
70301;SDS011;57706;56.326;43.882;2023-05-10T02:13:58;26.92;;;12.82;;
70301;SDS011;57706;56.326;43.882;2023-05-10T02:16:29;27.05;;;12.68;;
70301;SDS011;57706;56.326;43.882;2023-05-10T02:18:56;29.27;;;12.90;;
70301;SDS011;57706;56.326;43.882;2023-05-10T02:21:25;28.17;;;12.90;;
70301;SDS011;57706;56.326;43.882;2023-05-10T02:23:52;24.75;;;12.95;;
70301;SDS011;57706;56.326;43.882;2023-05-10T02:26:20;27.95;;;12.85;;
70301;SDS011;57706;56.326;43.882;2023-05-10T02:28:49;23.30;;;12.55;;
70301;SDS011;57706;56.326;43.882;2023-05-10T02:31:16;22.63;;;11.57;;
70301;SDS011;57706;56.326;43.882;2023-05-10T02:33:43;24.95;;;12.25;;
70301;SDS011;57706;56.326;43.882;2023-05-10T02:36:11;16.98;;;10.40;;
70301;SDS011;57706;56.326;43.882;2023-05-10T02:38:39;28.63;;;12.57;;
70301;SDS011;57706;56.326;43.882;2023-05-10T02:41:07;25.75;;;12.25;;
70301;SDS011;57706;56.326;43.882;2023-05-10T02:43:35;26.75;;;11.05;;
70301;SDS011;57706;56.326;43.882;2023-05-10T02:46:05;26.05;;;11.23;;
70301;SDS011;57706;56.326;43.882;2023-05-10T02:48:31;20.85;;;10.55;;
70301;SDS011;57706;56.326;43.882;2023-05-10T02:50:59;21.75;;;10.77;;
70301;SDS011;57706;56.326;43.882;2023-05-10T02:53:34;15.93;;;10.73;;
70301;SDS011;57706;56.326;43.882;2023-05-10T02:56:47;20.83;;;11.73;;
70301;SDS011;57706;56.326;43.882;2023-05-10T02:58:58;17.63;;;10.43;;
70301;SDS011;57706;56.326;43.882;2023-05-10T03:01:24;19.58;;;9.27;;
70301;SDS011;57706;56.326;43.882;2023-05-10T03:03:50;21.48;;;11.15;;
70301;SDS011;57706;56.326;43.882;2023-05-10T03:06:15;18.98;;;10.52;;
70301;SDS011;57706;56.326;43.882;2023-05-10T03:08:42;22.55;;;10.50;;
70301;SDS011;57706;56.326;43.882;2023-05-10T03:17:15;20.55;;;10.43;;
70301;SDS011;57706;56.326;43.882;2023-05-10T03:22:20;15.43;;;9.30;;
70301;SDS011;57706;56.326;43.882;2023-05-10T03:24:51;15.48;;;7.90;;
70301;SDS011;57706;56.326;43.882;2023-05-10T03:27:22;18.02;;;8.52;;
70301;SDS011;57706;56.326;43.882;2023-05-10T03:29:51;22.58;;;8.80;;
70301;SDS011;57706;56.326;43.882;2023-05-10T03:32:18;19.88;;;8.55;;
70301;SDS011;57706;56.326;43.882;2023-05-10T03:34:44;22.05;;;7.78;;
70301;SDS011;57706;56.326;43.882;2023-05-10T03:37:10;19.88;;;7.55;;
70301;SDS011;57706;56.326;43.882;2023-05-10T03:39:36;14.98;;;7.80;;
70301;SDS011;57706;56.326;43.882;2023-05-10T03:42:04;13.60;;;7.63;;
70301;SDS011;57706;56.326;43.882;2023-05-10T03:44:30;14.77;;;8.40;;
70301;SDS011;57706;56.326;43.882;2023-05-10T03:46:58;19.27;;;7.97;;
70301;SDS011;57706;56.326;43.882;2023-05-10T03:49:25;20.15;;;7.80;;
70301;SDS011;57706;56.326;43.882;2023-05-10T03:51:51;16.67;;;8.20;;
70301;SDS011;57706;56.326;43.882;2023-05-10T03:54:16;19.83;;;9.65;;
70301;SDS011;57706;56.326;43.882;2023-05-10T03:56:42;18.92;;;7.88;;
70301;SDS011;57706;56.326;43.882;2023-05-10T03:59:08;21.15;;;8.52;;
70301;SDS011;57706;56.326;43.882;2023-05-10T04:01:34;17.70;;;8.77;;
70301;SDS011;57706;56.326;43.882;2023-05-10T04:04:00;29.38;;;9.77;;
70301;SDS011;57706;56.326;43.882;2023-05-10T04:06:27;20.50;;;7.68;;
70301;SDS011;57706;56.326;43.882;2023-05-10T04:08:53;19.98;;;8.55;;
70301;SDS011;57706;56.326;43.882;2023-05-10T04:11:20;17.10;;;8.80;;
70301;SDS011;57706;56.326;43.882;2023-05-10T04:13:47;17.23;;;8.45;;
70301;SDS011;57706;56.326;43.882;2023-05-10T04:16:13;21.33;;;8.90;;
70301;SDS011;57706;56.326;43.882;2023-05-10T04:18:39;24.50;;;9.23;;
70301;SDS011;57706;56.326;43.882;2023-05-10T04:21:10;22.63;;;8.85;;
70301;SDS011;57706;56.326;43.882;2023-05-10T04:23:37;21.55;;;10.15;;
70301;SDS011;57706;56.326;43.882;2023-05-10T04:26:03;21.23;;;8.82;;
70301;SDS011;57706;56.326;43.882;2023-05-10T04:28:29;23.90;;;9.82;;
70301;SDS011;57706;56.326;43.882;2023-05-10T04:31:02;24.88;;;10.00;;
70301;SDS011;57706;56.326;43.882;2023-05-10T04:33:32;25.77;;;10.98;;
70301;SDS011;57706;56.326;43.882;2023-05-10T04:35:58;20.80;;;10.65;;
70301;SDS011;57706;56.326;43.882;2023-05-10T04:38:24;22.38;;;11.27;;
70301;SDS011;57706;56.326;43.882;2023-05-10T04:40:51;33.58;;;12.50;;
70301;SDS011;57706;56.326;43.882;2023-05-10T04:43:16;28.55;;;12.75;;
70301;SDS011;57706;56.326;43.882;2023-05-10T04:45:43;28.60;;;12.65;;
70301;SDS011;57706;56.326;43.882;2023-05-10T04:48:08;16.67;;;10.48;;
70301;SDS011;57706;56.326;43.882;2023-05-10T04:50:34;22.55;;;11.23;;
70301;SDS011;57706;56.326;43.882;2023-05-10T04:53:00;26.70;;;9.82;;
70301;SDS011;57706;56.326;43.882;2023-05-10T04:55:26;21.27;;;8.40;;
70301;SDS011;57706;56.326;43.882;2023-05-10T04:57:52;17.95;;;7.65;;
70301;SDS011;57706;56.326;43.882;2023-05-10T05:00:20;20.13;;;8.38;;
70301;SDS011;57706;56.326;43.882;2023-05-10T05:02:46;19.00;;;8.50;;
70301;SDS011;57706;56.326;43.882;2023-05-10T05:05:12;15.75;;;8.02;;
70301;SDS011;57706;56.326;43.882;2023-05-10T05:07:39;16.67;;;7.63;;
70301;SDS011;57706;56.326;43.882;2023-05-10T05:10:05;14.85;;;8.35;;
70301;SDS011;57706;56.326;43.882;2023-05-10T05:12:32;18.58;;;7.72;;
70301;SDS011;57706;56.326;43.882;2023-05-10T05:14:58;20.08;;;8.40;;
70301;SDS011;57706;56.326;43.882;2023-05-10T05:17:24;16.05;;;7.43;;
70301;SDS011;57706;56.326;43.882;2023-05-10T05:19:50;16.48;;;7.70;;
70301;SDS011;57706;56.326;43.882;2023-05-10T05:22:17;14.48;;;9.25;;
70301;SDS011;57706;56.326;43.882;2023-05-10T05:24:44;14.05;;;6.65;;
70301;SDS011;57706;56.326;43.882;2023-05-10T05:27:11;13.20;;;6.00;;
70301;SDS011;57706;56.326;43.882;2023-05-10T05:29:36;11.35;;;5.05;;
70301;SDS011;57706;56.326;43.882;2023-05-10T05:32:02;10.35;;;4.25;;
70301;SDS011;57706;56.326;43.882;2023-05-10T05:34:28;10.18;;;3.97;;
70301;SDS011;57706;56.326;43.882;2023-05-10T05:36:54;10.40;;;4.38;;
70301;SDS011;57706;56.326;43.882;2023-05-10T05:39:20;12.27;;;4.47;;
70301;SDS011;57706;56.326;43.882;2023-05-10T05:41:46;9.55;;;4.35;;
70301;SDS011;57706;56.326;43.882;2023-05-10T05:44:12;13.88;;;4.70;;
70301;SDS011;57706;56.326;43.882;2023-05-10T05:46:38;8.10;;;3.05;;
70301;SDS011;57706;56.326;43.882;2023-05-10T05:49:04;11.38;;;3.92;;
70301;SDS011;57706;56.326;43.882;2023-05-10T05:51:30;14.73;;;3.78;;
70301;SDS011;57706;56.326;43.882;2023-05-10T05:53:56;6.47;;;3.28;;
70301;SDS011;57706;56.326;43.882;2023-05-10T05:56:22;12.35;;;2.80;;
70301;SDS011;57706;56.326;43.882;2023-05-10T05:58:51;9.30;;;3.35;;
70301;SDS011;57706;56.326;43.882;2023-05-10T06:01:16;7.50;;;3.10;;
70301;SDS011;57706;56.326;43.882;2023-05-10T06:03:42;10.98;;;2.90;;
70301;SDS011;57706;56.326;43.882;2023-05-10T06:06:08;7.65;;;2.72;;
70301;SDS011;57706;56.326;43.882;2023-05-10T06:08:34;7.85;;;3.95;;
70301;SDS011;57706;56.326;43.882;2023-05-10T06:11:00;8.55;;;2.90;;
70301;SDS011;57706;56.326;43.882;2023-05-10T06:13:27;5.32;;;2.13;;
70301;SDS011;57706;56.326;43.882;2023-05-10T06:15:57;4.65;;;2.25;;
70301;SDS011;57706;56.326;43.882;2023-05-10T06:18:24;5.15;;;2.47;;
70301;SDS011;57706;56.326;43.882;2023-05-10T06:20:49;5.60;;;2.50;;
70301;SDS011;57706;56.326;43.882;2023-05-10T06:23:15;5.75;;;2.03;;
70301;SDS011;57706;56.326;43.882;2023-05-10T06:25:41;6.80;;;2.70;;
70301;SDS011;57706;56.326;43.882;2023-05-10T06:28:07;3.83;;;2.30;;
70301;SDS011;57706;56.326;43.882;2023-05-10T06:30:33;4.18;;;2.05;;
70301;SDS011;57706;56.326;43.882;2023-05-10T06:32:59;3.63;;;2.00;;
70301;SDS011;57706;56.326;43.882;2023-05-10T06:35:25;5.32;;;1.98;;
70301;SDS011;57706;56.326;43.882;2023-05-10T06:37:50;6.40;;;1.98;;
70301;SDS011;57706;56.326;43.882;2023-05-10T06:40:17;3.80;;;1.70;;
70301;SDS011;57706;56.326;43.882;2023-05-10T06:42:43;8.32;;;1.80;;
70301;SDS011;57706;56.326;43.882;2023-05-10T06:45:10;2.15;;;1.60;;
70301;SDS011;57706;56.326;43.882;2023-05-10T06:47:36;3.80;;;1.98;;
70301;SDS011;57706;56.326;43.882;2023-05-10T06:50:02;4.40;;;1.70;;
70301;SDS011;57706;56.326;43.882;2023-05-10T06:52:30;5.40;;;1.85;;
70301;SDS011;57706;56.326;43.882;2023-05-10T06:54:56;5.07;;;2.10;;
70301;SDS011;57706;56.326;43.882;2023-05-10T06:57:22;4.13;;;1.65;;
70301;SDS011;57706;56.326;43.882;2023-05-10T06:59:48;2.88;;;1.38;;
70301;SDS011;57706;56.326;43.882;2023-05-10T07:02:14;77.80;;;6.43;;
70301;SDS011;57706;56.326;43.882;2023-05-10T07:04:40;3.40;;;1.42;;
70301;SDS011;57706;56.326;43.882;2023-05-10T07:07:06;2.78;;;1.88;;
70301;SDS011;57706;56.326;43.882;2023-05-10T07:09:32;6.95;;;1.77;;
70301;SDS011;57706;56.326;43.882;2023-05-10T07:11:58;3.42;;;1.70;;
70301;SDS011;57706;56.326;43.882;2023-05-10T07:14:23;3.88;;;1.60;;
70301;SDS011;57706;56.326;43.882;2023-05-10T07:16:49;2.75;;;2.25;;
70301;SDS011;57706;56.326;43.882;2023-05-10T07:19:15;2.65;;;2.25;;
70301;SDS011;57706;56.326;43.882;2023-05-10T07:21:41;9.40;;;1.52;;
70301;SDS011;57706;56.326;43.882;2023-05-10T07:24:08;7.22;;;1.90;;
70301;SDS011;57706;56.326;43.882;2023-05-10T07:26:34;5.38;;;1.60;;
70301;SDS011;57706;56.326;43.882;2023-05-10T07:29:00;5.47;;;2.03;;
70301;SDS011;57706;56.326;43.882;2023-05-10T07:31:26;7.25;;;2.95;;
70301;SDS011;57706;56.326;43.882;2023-05-10T07:33:52;7.55;;;2.30;;
70301;SDS011;57706;56.326;43.882;2023-05-10T07:36:18;15.32;;;2.03;;
70301;SDS011;57706;56.326;43.882;2023-05-10T07:38:44;4.60;;;1.35;;
70301;SDS011;57706;56.326;43.882;2023-05-10T07:41:11;4.53;;;1.55;;
70301;SDS011;57706;56.326;43.882;2023-05-10T07:43:37;3.30;;;1.60;;
70301;SDS011;57706;56.326;43.882;2023-05-10T07:46:03;2.13;;;1.40;;
70301;SDS011;57706;56.326;43.882;2023-05-10T07:48:30;4.43;;;1.88;;
70301;SDS011;57706;56.326;43.882;2023-05-10T07:50:56;4.38;;;1.55;;
70301;SDS011;57706;56.326;43.882;2023-05-10T07:53:22;11.77;;;2.17;;
70301;SDS011;57706;56.326;43.882;2023-05-10T07:55:51;2.97;;;1.50;;
70301;SDS011;57706;56.326;43.882;2023-05-10T07:58:23;3.80;;;2.03;;
70301;SDS011;57706;56.326;43.882;2023-05-10T08:00:50;4.32;;;1.70;;
70301;SDS011;57706;56.326;43.882;2023-05-10T08:03:16;5.15;;;1.75;;
70301;SDS011;57706;56.326;43.882;2023-05-10T08:05:42;12.52;;;1.80;;
70301;SDS011;57706;56.326;43.882;2023-05-10T08:08:08;7.93;;;6.15;;
70301;SDS011;57706;56.326;43.882;2023-05-10T08:10:33;2.45;;;1.80;;
70301;SDS011;57706;56.326;43.882;2023-05-10T08:12:59;4.13;;;1.70;;
70301;SDS011;57706;56.326;43.882;2023-05-10T08:15:25;2.95;;;1.67;;
70301;SDS011;57706;56.326;43.882;2023-05-10T08:17:51;2.30;;;1.77;;
70301;SDS011;57706;56.326;43.882;2023-05-10T08:20:17;2.33;;;1.58;;
70301;SDS011;57706;56.326;43.882;2023-05-10T08:22:47;2.70;;;1.70;;
70301;SDS011;57706;56.326;43.882;2023-05-10T08:25:13;4.97;;;1.58;;
70301;SDS011;57706;56.326;43.882;2023-05-10T08:27:39;2.40;;;1.95;;
70301;SDS011;57706;56.326;43.882;2023-05-10T08:30:05;2.20;;;1.90;;
70301;SDS011;57706;56.326;43.882;2023-05-10T08:32:32;2.58;;;1.58;;
70301;SDS011;57706;56.326;43.882;2023-05-10T08:35:00;4.43;;;2.15;;
70301;SDS011;57706;56.326;43.882;2023-05-10T08:37:26;1.70;;;1.60;;
70301;SDS011;57706;56.326;43.882;2023-05-10T08:39:55;3.40;;;1.50;;
70301;SDS011;57706;56.326;43.882;2023-05-10T08:42:21;6.53;;;1.65;;
70301;SDS011;57706;56.326;43.882;2023-05-10T08:44:51;2.63;;;1.65;;
70301;SDS011;57706;56.326;43.882;2023-05-10T08:47:18;2.22;;;1.70;;
70301;SDS011;57706;56.326;43.882;2023-05-10T08:49:45;5.43;;;2.00;;
70301;SDS011;57706;56.326;43.882;2023-05-10T08:52:16;2.47;;;1.90;;
70301;SDS011;57706;56.326;43.882;2023-05-10T08:54:43;5.30;;;1.73;;
70301;SDS011;57706;56.326;43.882;2023-05-10T08:57:10;2.97;;;1.50;;
70301;SDS011;57706;56.326;43.882;2023-05-10T08:59:36;5.28;;;1.35;;
70301;SDS011;57706;56.326;43.882;2023-05-10T09:02:05;2.95;;;1.20;;
70301;SDS011;57706;56.326;43.882;2023-05-10T09:04:31;3.10;;;1.30;;
70301;SDS011;57706;56.326;43.882;2023-05-10T09:06:58;2.08;;;1.20;;
70301;SDS011;57706;56.326;43.882;2023-05-10T09:09:24;3.92;;;1.40;;
70301;SDS011;57706;56.326;43.882;2023-05-10T09:11:51;1.83;;;1.52;;
70301;SDS011;57706;56.326;43.882;2023-05-10T09:14:18;3.90;;;1.60;;
70301;SDS011;57706;56.326;43.882;2023-05-10T09:16:45;5.22;;;1.58;;
70301;SDS011;57706;56.326;43.882;2023-05-10T09:19:11;2.63;;;1.50;;
70301;SDS011;57706;56.326;43.882;2023-05-10T09:21:37;2.20;;;1.95;;
70301;SDS011;57706;56.326;43.882;2023-05-10T09:24:04;2.40;;;2.20;;
70301;SDS011;57706;56.326;43.882;2023-05-10T09:26:31;2.72;;;2.42;;
70301;SDS011;57706;56.326;43.882;2023-05-10T09:28:58;1.73;;;1.63;;
70301;SDS011;57706;56.326;43.882;2023-05-10T09:31:42;4.90;;;2.20;;
70301;SDS011;57706;56.326;43.882;2023-05-10T09:34:10;9.27;;;1.70;;
70301;SDS011;57706;56.326;43.882;2023-05-10T09:36:36;3.88;;;1.75;;
70301;SDS011;57706;56.326;43.882;2023-05-10T09:39:02;2.58;;;2.10;;
70301;SDS011;57706;56.326;43.882;2023-05-10T09:41:28;8.35;;;1.67;;
70301;SDS011;57706;56.326;43.882;2023-05-10T09:43:55;2.30;;;1.67;;
70301;SDS011;57706;56.326;43.882;2023-05-10T09:46:21;2.00;;;1.80;;
70301;SDS011;57706;56.326;43.882;2023-05-10T09:51:20;1.70;;;1.60;;
70301;SDS011;57706;56.326;43.882;2023-05-10T09:53:47;3.45;;;1.80;;
70301;SDS011;57706;56.326;43.882;2023-05-10T09:56:34;2.25;;;1.55;;
70301;SDS011;57706;56.326;43.882;2023-05-10T09:59:04;5.47;;;3.55;;
70301;SDS011;57706;56.326;43.882;2023-05-10T10:01:31;1.67;;;1.58;;
70301;SDS011;57706;56.326;43.882;2023-05-10T10:03:57;4.10;;;1.80;;
70301;SDS011;57706;56.326;43.882;2023-05-10T10:06:24;3.08;;;1.67;;
70301;SDS011;57706;56.326;43.882;2023-05-10T10:08:50;1.73;;;1.42;;
70301;SDS011;57706;56.326;43.882;2023-05-10T10:11:16;4.55;;;2.13;;
70301;SDS011;57706;56.326;43.882;2023-05-10T10:13:42;2.47;;;1.52;;
70301;SDS011;57706;56.326;43.882;2023-05-10T10:16:08;4.25;;;1.88;;
70301;SDS011;57706;56.326;43.882;2023-05-10T10:18:35;3.88;;;1.80;;
70301;SDS011;57706;56.326;43.882;2023-05-10T10:21:07;4.40;;;2.00;;
70301;SDS011;57706;56.326;43.882;2023-05-10T10:23:36;2.63;;;1.67;;
70301;SDS011;57706;56.326;43.882;2023-05-10T10:26:03;3.17;;;1.50;;
70301;SDS011;57706;56.326;43.882;2023-05-10T10:28:50;4.18;;;1.73;;
70301;SDS011;57706;56.326;43.882;2023-05-10T10:31:36;4.43;;;1.70;;
70301;SDS011;57706;56.326;43.882;2023-05-10T10:34:06;5.68;;;1.70;;
70301;SDS011;57706;56.326;43.882;2023-05-10T10:36:47;2.13;;;1.67;;
70301;SDS011;57706;56.326;43.882;2023-05-10T10:39:13;6.43;;;1.65;;
70301;SDS011;57706;56.326;43.882;2023-05-10T10:41:48;6.05;;;1.63;;
70301;SDS011;57706;56.326;43.882;2023-05-10T10:52:39;4.13;;;1.73;;
70301;SDS011;57706;56.326;43.882;2023-05-10T10:55:03;2.58;;;2.05;;
70301;SDS011;57706;56.326;43.882;2023-05-10T10:57:42;2.97;;;1.83;;
70301;SDS011;57706;56.326;43.882;2023-05-10T11:02:59;1.75;;;1.65;;
70301;SDS011;57706;56.326;43.882;2023-05-10T11:10:52;1.45;;;1.05;;
70301;SDS011;57706;56.326;43.882;2023-05-10T11:16:13;4.47;;;1.65;;
70301;SDS011;57706;56.326;43.882;2023-05-10T11:19:00;4.05;;;1.98;;
70301;SDS011;57706;56.326;43.882;2023-05-10T11:21:32;5.38;;;1.85;;
70301;SDS011;57706;56.326;43.882;2023-05-10T11:23:59;2.67;;;2.28;;
70301;SDS011;57706;56.326;43.882;2023-05-10T11:26:33;2.53;;;1.60;;
70301;SDS011;57706;56.326;43.882;2023-05-10T11:29:00;5.22;;;2.22;;
70301;SDS011;57706;56.326;43.882;2023-05-10T11:31:27;3.42;;;2.00;;
70301;SDS011;57706;56.326;43.882;2023-05-10T11:33:55;3.90;;;1.92;;
70301;SDS011;57706;56.326;43.882;2023-05-10T11:36:35;8.45;;;3.03;;
70301;SDS011;57706;56.326;43.882;2023-05-10T11:39:01;5.18;;;1.42;;
70301;SDS011;57706;56.326;43.882;2023-05-10T11:41:29;4.80;;;1.38;;
70301;SDS011;57706;56.326;43.882;2023-05-10T11:43:56;4.55;;;1.67;;
70301;SDS011;57706;56.326;43.882;2023-05-10T11:46:24;2.80;;;1.48;;
70301;SDS011;57706;56.326;43.882;2023-05-10T11:48:54;2.65;;;1.45;;
70301;SDS011;57706;56.326;43.882;2023-05-10T11:51:23;2.63;;;2.20;;
70301;SDS011;57706;56.326;43.882;2023-05-10T11:53:53;4.53;;;2.10;;
70301;SDS011;57706;56.326;43.882;2023-05-10T11:56:20;2.38;;;1.67;;
70301;SDS011;57706;56.326;43.882;2023-05-10T11:58:52;6.97;;;1.60;;
70301;SDS011;57706;56.326;43.882;2023-05-10T12:01:21;2.45;;;1.65;;
70301;SDS011;57706;56.326;43.882;2023-05-10T12:03:48;1.95;;;1.77;;
70301;SDS011;57706;56.326;43.882;2023-05-10T12:06:16;3.83;;;2.20;;
70301;SDS011;57706;56.326;43.882;2023-05-10T12:08:47;4.72;;;2.40;;
70301;SDS011;57706;56.326;43.882;2023-05-10T12:11:17;4.47;;;1.70;;
70301;SDS011;57706;56.326;43.882;2023-05-10T12:13:44;3.83;;;1.23;;
70301;SDS011;57706;56.326;43.882;2023-05-10T12:16:15;1.92;;;1.50;;
70301;SDS011;57706;56.326;43.882;2023-05-10T12:18:43;3.55;;;1.63;;
70301;SDS011;57706;56.326;43.882;2023-05-10T12:21:10;3.50;;;1.58;;
70301;SDS011;57706;56.326;43.882;2023-05-10T12:23:37;7.18;;;1.75;;
70301;SDS011;57706;56.326;43.882;2023-05-10T12:26:04;10.07;;;1.80;;
70301;SDS011;57706;56.326;43.882;2023-05-10T12:28:31;5.60;;;2.03;;
70301;SDS011;57706;56.326;43.882;2023-05-10T12:31:01;4.45;;;1.77;;
70301;SDS011;57706;56.326;43.882;2023-05-10T12:33:35;4.82;;;1.63;;
70301;SDS011;57706;56.326;43.882;2023-05-10T12:36:08;3.65;;;1.65;;
70301;SDS011;57706;56.326;43.882;2023-05-10T12:38:36;1.95;;;1.30;;
70301;SDS011;57706;56.326;43.882;2023-05-10T12:41:04;6.15;;;1.95;;
70301;SDS011;57706;56.326;43.882;2023-05-10T12:43:34;4.30;;;1.90;;
70301;SDS011;57706;56.326;43.882;2023-05-10T12:46:11;2.38;;;1.90;;
70301;SDS011;57706;56.326;43.882;2023-05-10T12:48:38;4.45;;;2.10;;
70301;SDS011;57706;56.326;43.882;2023-05-10T12:51:06;4.10;;;2.40;;
70301;SDS011;57706;56.326;43.882;2023-05-10T12:53:38;4.70;;;2.35;;
70301;SDS011;57706;56.326;43.882;2023-05-10T12:56:04;5.10;;;2.60;;
70301;SDS011;57706;56.326;43.882;2023-05-10T12:58:31;2.90;;;2.15;;
70301;SDS011;57706;56.326;43.882;2023-05-10T13:00:57;2.22;;;1.80;;
70301;SDS011;57706;56.326;43.882;2023-05-10T13:03:24;5.85;;;1.90;;
70301;SDS011;57706;56.326;43.882;2023-05-10T13:05:50;3.35;;;1.90;;
70301;SDS011;57706;56.326;43.882;2023-05-10T13:08:16;4.25;;;1.92;;
70301;SDS011;57706;56.326;43.882;2023-05-10T13:10:42;2.63;;;1.40;;
70301;SDS011;57706;56.326;43.882;2023-05-10T13:13:08;3.53;;;1.88;;
70301;SDS011;57706;56.326;43.882;2023-05-10T13:15:34;3.78;;;1.63;;
70301;SDS011;57706;56.326;43.882;2023-05-10T13:18:00;7.38;;;1.92;;
70301;SDS011;57706;56.326;43.882;2023-05-10T13:20:26;6.05;;;1.63;;
70301;SDS011;57706;56.326;43.882;2023-05-10T13:22:52;5.20;;;1.60;;
70301;SDS011;57706;56.326;43.882;2023-05-10T13:25:18;6.80;;;1.60;;
70301;SDS011;57706;56.326;43.882;2023-05-10T13:27:45;3.97;;;1.75;;
70301;SDS011;57706;56.326;43.882;2023-05-10T13:30:11;7.22;;;1.90;;
70301;SDS011;57706;56.326;43.882;2023-05-10T13:32:37;4.22;;;1.95;;
70301;SDS011;57706;56.326;43.882;2023-05-10T13:35:04;2.25;;;1.70;;
70301;SDS011;57706;56.326;43.882;2023-05-10T13:37:31;2.40;;;1.73;;
70301;SDS011;57706;56.326;43.882;2023-05-10T13:40:01;2.75;;;1.77;;
70301;SDS011;57706;56.326;43.882;2023-05-10T13:42:32;2.45;;;1.70;;
70301;SDS011;57706;56.326;43.882;2023-05-10T13:45:00;10.38;;;1.80;;
70301;SDS011;57706;56.326;43.882;2023-05-10T13:47:33;11.07;;;1.65;;
70301;SDS011;57706;56.326;43.882;2023-05-10T13:49:59;7.97;;;1.75;;
70301;SDS011;57706;56.326;43.882;2023-05-10T13:52:31;1.65;;;1.52;;
70301;SDS011;57706;56.326;43.882;2023-05-10T13:54:57;2.10;;;1.60;;
70301;SDS011;57706;56.326;43.882;2023-05-10T13:57:22;5.05;;;1.90;;
70301;SDS011;57706;56.326;43.882;2023-05-10T13:59:50;3.28;;;1.63;;
70301;SDS011;57706;56.326;43.882;2023-05-10T14:02:16;7.95;;;1.65;;
70301;SDS011;57706;56.326;43.882;2023-05-10T14:04:41;4.95;;;1.70;;
70301;SDS011;57706;56.326;43.882;2023-05-10T14:07:07;2.58;;;1.75;;
70301;SDS011;57706;56.326;43.882;2023-05-10T14:09:33;6.97;;;1.90;;
70301;SDS011;57706;56.326;43.882;2023-05-10T14:11:59;4.88;;;1.70;;
70301;SDS011;57706;56.326;43.882;2023-05-10T14:14:25;7.60;;;1.83;;
70301;SDS011;57706;56.326;43.882;2023-05-10T14:16:51;5.22;;;1.92;;
70301;SDS011;57706;56.326;43.882;2023-05-10T14:19:17;9.52;;;6.35;;
70301;SDS011;57706;56.326;43.882;2023-05-10T14:21:43;2.78;;;1.75;;
70301;SDS011;57706;56.326;43.882;2023-05-10T14:24:09;6.50;;;2.00;;
70301;SDS011;57706;56.326;43.882;2023-05-10T14:26:35;7.88;;;1.77;;
70301;SDS011;57706;56.326;43.882;2023-05-10T14:29:01;3.42;;;1.30;;
70301;SDS011;57706;56.326;43.882;2023-05-10T14:31:27;3.42;;;1.60;;
70301;SDS011;57706;56.326;43.882;2023-05-10T14:33:55;6.35;;;2.10;;
70301;SDS011;57706;56.326;43.882;2023-05-10T14:36:22;1.92;;;1.45;;
70301;SDS011;57706;56.326;43.882;2023-05-10T14:38:48;2.60;;;1.58;;
70301;SDS011;57706;56.326;43.882;2023-05-10T14:41:15;2.25;;;1.70;;
70301;SDS011;57706;56.326;43.882;2023-05-10T14:43:43;4.47;;;1.80;;
70301;SDS011;57706;56.326;43.882;2023-05-10T14:46:09;1.90;;;1.60;;
70301;SDS011;57706;56.326;43.882;2023-05-10T14:48:35;2.47;;;1.60;;
70301;SDS011;57706;56.326;43.882;2023-05-10T14:51:01;4.95;;;1.65;;
70301;SDS011;57706;56.326;43.882;2023-05-10T14:53:27;4.97;;;1.48;;
70301;SDS011;57706;56.326;43.882;2023-05-10T14:55:53;4.97;;;1.85;;
70301;SDS011;57706;56.326;43.882;2023-05-10T14:58:19;2.13;;;1.42;;
70301;SDS011;57706;56.326;43.882;2023-05-10T15:00:44;2.42;;;1.80;;
70301;SDS011;57706;56.326;43.882;2023-05-10T15:03:11;5.78;;;1.80;;
70301;SDS011;57706;56.326;43.882;2023-05-10T15:05:37;3.08;;;1.73;;
70301;SDS011;57706;56.326;43.882;2023-05-10T15:08:03;4.22;;;1.70;;
70301;SDS011;57706;56.326;43.882;2023-05-10T15:10:30;3.75;;;1.45;;
70301;SDS011;57706;56.326;43.882;2023-05-10T15:12:56;5.95;;;1.80;;
70301;SDS011;57706;56.326;43.882;2023-05-10T15:15:21;5.00;;;1.70;;